Time,TemperatureF,DewpointF,PressureIn,WindDirection,WindDirectionDegrees,WindSpeedMPH,WindSpeedGustMPH,Humidity,HourlyPrecipIn,Conditions,Clouds,dailyrainin,SolarRadiationWatts/m^2,SoftwareType,DateUTC
2013-02-21 00:03:00,29.0,16.0,-100.00,NW,323,7.0,17.0,59,0.00,,,0.61,0.000000,,2013-02-21 05:03:00,
2013-02-21 00:12:00,29.0,16.0,-100.00,NW,323,7.0,17.0,59,0.00,,,0.61,0.000000,,2013-02-21 05:12:00,
2013-02-21 00:22:00,29.0,16.0,-100.00,NW,323,7.0,17.0,59,0.00,,,0.61,0.000000,,2013-02-21 05:22:00,
2013-02-21 00:36:00,29.0,16.0,-100.00,NW,323,7.0,17.0,59,0.00,,,0.61,0.000000,,2013-02-21 05:36:00,
2013-02-21 01:01:00,29.0,16.0,-100.00,NW,323,6.0,16.0,59,0.00,,,0.47,0.000000,,2013-02-21 06:01:00,
2013-02-21 01:11:00,29.0,16.0,-100.00,NW,323,6.0,16.0,59,0.00,,,0.47,0.000000,,2013-02-21 06:11:00,
2013-02-21 01:21:00,29.0,16.0,-100.00,NW,323,6.0,16.0,59,0.00,,,0.47,0.000000,,2013-02-21 06:21:00,
2013-02-21 01:31:00,29.0,16.0,-100.00,NW,323,6.0,16.0,59,0.00,,,0.47,0.000000,,2013-02-21 06:31:00,
2013-02-21 02:01:00,28.0,15.0,-100.00,NW,322,6.0,19.0,57,0.00,,,0.33,0.000000,,2013-02-21 07:01:00,
2013-02-21 02:11:00,28.0,15.0,-100.00,NW,322,6.0,19.0,57,0.00,,,0.33,0.000000,,2013-02-21 07:11:00,
2013-02-21 02:21:00,28.0,15.0,-100.00,NW,322,6.0,19.0,57,0.00,,,0.33,0.000000,,2013-02-21 07:21:00,
2013-02-21 02:32:00,28.0,15.0,-100.00,NW,322,6.0,19.0,57,0.00,,,0.33,0.000000,,2013-02-21 07:32:00,
2013-02-21 03:02:00,28.0,16.0,-100.00,NW,323,5.0,18.0,59,0.00,,,0.20,0.000000,,2013-02-21 08:02:00,
2013-02-21 03:11:00,28.0,16.0,-100.00,NW,323,5.0,18.0,59,0.00,,,0.20,0.000000,,2013-02-21 08:11:00,
2013-02-21 03:21:00,28.0,16.0,-100.00,NW,323,5.0,18.0,59,0.00,,,0.20,0.000000,,2013-02-21 08:21:00,
2013-02-21 03:32:00,28.0,16.0,-100.00,NW,323,5.0,18.0,59,0.00,,,0.20,0.000000,,2013-02-21 08:32:00,
2013-02-21 04:02:00,27.0,14.0,-100.00,NNW,332,5.0,14.0,58,0.00,,,0.07,0.000000,,2013-02-21 09:02:00,
2013-02-21 04:11:00,27.0,14.0,-100.00,NNW,332,5.0,14.0,58,0.00,,,0.07,0.000000,,2013-02-21 09:11:00,
2013-02-21 04:22:00,27.0,14.0,-100.00,NNW,332,5.0,14.0,58,0.00,,,0.07,0.000000,,2013-02-21 09:22:00,
2013-02-21 04:32:00,27.0,14.0,-100.00,NNW,332,5.0,14.0,58,0.00,,,0.07,0.000000,,2013-02-21 09:32:00,
2013-02-21 04:52:00,27.0,14.0,-100.00,NW,321,6.0,14.0,57,0.00,,,0.03,0.000000,,2013-02-21 09:52:00,
2013-02-21 05:01:00,27.0,14.0,-100.00,NW,321,6.0,14.0,57,0.00,,,0.03,0.000000,,2013-02-21 10:01:00,
2013-02-21 05:11:00,27.0,14.0,-100.00,NW,321,6.0,14.0,57,0.00,,,0.03,0.000000,,2013-02-21 10:11:00,
2013-02-21 05:21:00,27.0,14.0,-100.00,NW,321,6.0,14.0,57,0.00,,,0.03,0.000000,,2013-02-21 10:21:00,
2013-02-21 05:31:00,27.0,14.0,-100.00,NW,321,6.0,14.0,57,0.00,,,0.03,0.000000,,2013-02-21 10:31:00,
2013-02-21 05:51:00,26.0,13.0,-100.00,NW,317,5.0,13.0,57,0.00,,,0.00,0.000000,,2013-02-21 10:51:00,
2013-02-21 06:01:00,26.0,13.0,-100.00,NW,317,5.0,13.0,57,0.00,,,0.00,0.000000,,2013-02-21 11:01:00,
2013-02-21 06:11:00,26.0,13.0,-100.00,NW,317,5.0,13.0,57,0.00,,,0.00,0.000000,,2013-02-21 11:11:00,
2013-02-21 06:21:00,26.0,13.0,-100.00,NW,317,5.0,13.0,57,0.00,,,0.00,0.000000,,2013-02-21 11:21:00,
2013-02-21 06:31:00,26.0,13.0,-100.00,NW,317,5.0,13.0,57,0.00,,,0.00,0.000000,,2013-02-21 11:31:00,
2013-02-21 07:01:00,25.0,12.0,-100.00,NW,322,5.0,12.0,58,0.00,,,0.00,3.000000,,2013-02-21 12:01:00,
2013-02-21 07:11:00,25.0,12.0,-100.00,NW,322,5.0,12.0,58,0.00,,,0.00,3.000000,,2013-02-21 12:11:00,
2013-02-21 07:22:00,25.0,12.0,-100.00,NW,322,5.0,12.0,58,0.00,,,0.00,3.000000,,2013-02-21 12:22:00,
2013-02-21 07:32:00,25.0,12.0,-100.00,NW,322,5.0,12.0,58,0.00,,,0.00,3.000000,,2013-02-21 12:32:00,
2013-02-21 08:02:00,27.0,14.0,-100.00,NNW,336,4.0,13.0,57,0.00,,,0.00,64.000000,,2013-02-21 13:02:00,
2013-02-21 08:12:00,27.0,14.0,-100.00,NNW,336,4.0,13.0,57,0.00,,,0.00,64.000000,,2013-02-21 13:12:00,
2013-02-21 08:22:00,27.0,14.0,-100.00,NNW,336,4.0,13.0,57,0.00,,,0.00,64.000000,,2013-02-21 13:22:00,
2013-02-21 08:32:00,27.0,14.0,-100.00,NNW,336,4.0,13.0,57,0.00,,,0.00,64.000000,,2013-02-21 13:32:00,
2013-02-21 09:02:00,29.0,13.0,-100.00,NNW,330,5.0,15.0,50,0.00,,,0.00,220.000000,,2013-02-21 14:02:00,
2013-02-21 09:11:00,29.0,13.0,-100.00,NNW,330,5.0,15.0,50,0.00,,,0.00,220.000000,,2013-02-21 14:11:00,
2013-02-21 09:22:00,29.0,13.0,-100.00,NNW,330,5.0,15.0,50,0.00,,,0.00,220.000000,,2013-02-21 14:22:00,
2013-02-21 09:32:00,29.0,13.0,-100.00,NNW,330,5.0,15.0,50,0.00,,,0.00,220.000000,,2013-02-21 14:32:00,
2013-02-21 10:02:00,30.0,13.0,-100.00,NNW,337,6.0,13.0,48,0.00,,,0.00,413.000000,,2013-02-21 15:02:00,
2013-02-21 10:12:00,30.0,13.0,-100.00,NNW,337,6.0,13.0,48,0.00,,,0.00,413.000000,,2013-02-21 15:12:00,
2013-02-21 10:22:00,30.0,13.0,-100.00,NNW,337,6.0,13.0,48,0.00,,,0.00,413.000000,,2013-02-21 15:22:00,
2013-02-21 10:32:00,30.0,13.0,-100.00,NNW,337,6.0,13.0,48,0.00,,,0.00,413.000000,,2013-02-21 15:32:00,
2013-02-21 11:02:00,31.0,14.0,-100.00,NNW,341,5.0,17.0,49,0.00,,,0.00,651.000000,,2013-02-21 16:02:00,
2013-02-21 11:12:00,31.0,14.0,-100.00,NNW,341,5.0,17.0,49,0.00,,,0.00,651.000000,,2013-02-21 16:12:00,
2013-02-21 11:22:00,31.0,14.0,-100.00,NNW,341,5.0,17.0,49,0.00,,,0.00,651.000000,,2013-02-21 16:22:00,
2013-02-21 11:32:00,31.0,14.0,-100.00,NNW,341,5.0,17.0,49,0.00,,,0.00,651.000000,,2013-02-21 16:32:00,
2013-02-21 11:52:00,31.0,15.0,-100.00,NNW,343,7.0,15.0,50,0.00,,,0.00,467.000000,,2013-02-21 16:52:00,
2013-02-21 12:02:00,31.0,15.0,-100.00,NNW,343,7.0,15.0,50,0.00,,,0.00,467.000000,,2013-02-21 17:02:00,
2013-02-21 12:11:00,31.0,15.0,-100.00,NNW,343,7.0,15.0,50,0.00,,,0.00,467.000000,,2013-02-21 17:11:00,
2013-02-21 12:21:00,31.0,15.0,-100.00,NNW,343,7.0,15.0,50,0.00,,,0.00,467.000000,,2013-02-21 17:21:00,
2013-02-21 12:32:00,31.0,15.0,-100.00,NNW,343,7.0,15.0,50,0.00,,,0.00,467.000000,,2013-02-21 17:32:00,
2013-02-21 13:02:00,33.0,16.0,-100.00,NNW,335,7.0,16.0,49,0.00,,,0.00,691.000000,,2013-02-21 18:02:00,
2013-02-21 13:12:00,33.0,16.0,-100.00,NNW,335,7.0,16.0,49,0.00,,,0.00,691.000000,,2013-02-21 18:12:00,
2013-02-21 13:22:00,33.0,16.0,-100.00,NNW,335,7.0,16.0,49,0.00,,,0.00,691.000000,,2013-02-21 18:22:00,
2013-02-21 13:32:00,33.0,16.0,-100.00,NNW,335,7.0,16.0,49,0.00,,,0.00,691.000000,,2013-02-21 18:32:00,
2013-02-21 14:02:00,28.0,17.0,-100.00,NNW,332,7.0,18.0,63,0.00,,,0.00,247.000000,,2013-02-21 19:02:00,
2013-02-21 14:12:00,28.0,17.0,-100.00,NNW,332,7.0,18.0,63,0.00,,,0.00,247.000000,,2013-02-21 19:12:00,
2013-02-21 14:21:00,28.0,17.0,-100.00,NNW,332,7.0,18.0,63,0.00,,,0.00,247.000000,,2013-02-21 19:21:00,
2013-02-21 14:32:00,28.0,17.0,-100.00,NNW,332,7.0,18.0,63,0.00,,,0.00,247.000000,,2013-02-21 19:32:00,
2013-02-21 14:52:00,28.0,19.0,-100.00,NNW,345,7.0,16.0,69,0.00,,,0.00,144.000000,,2013-02-21 19:52:00,
2013-02-21 15:01:00,28.0,19.0,-100.00,NNW,345,7.0,16.0,69,0.00,,,0.00,144.000000,,2013-02-21 20:01:00,
2013-02-21 15:11:00,28.0,19.0,-100.00,NNW,345,7.0,16.0,69,0.00,,,0.00,144.000000,,2013-02-21 20:11:00,
2013-02-21 15:21:00,28.0,19.0,-100.00,NNW,345,7.0,16.0,69,0.00,,,0.00,144.000000,,2013-02-21 20:21:00,
2013-02-21 15:32:00,28.0,19.0,-100.00,NNW,345,7.0,16.0,69,0.00,,,0.00,144.000000,,2013-02-21 20:32:00,
2013-02-21 16:02:00,27.0,22.0,-100.00,NNW,334,8.0,16.0,80,0.00,,,0.00,79.000000,,2013-02-21 21:02:00,
2013-02-21 16:12:00,27.0,22.0,-100.00,NNW,334,8.0,16.0,80,0.00,,,0.00,79.000000,,2013-02-21 21:12:00,
2013-02-21 16:22:00,27.0,22.0,-100.00,NNW,334,8.0,16.0,80,0.00,,,0.00,79.000000,,2013-02-21 21:22:00,
2013-02-21 16:32:00,27.0,22.0,-100.00,NNW,334,8.0,16.0,80,0.00,,,0.00,79.000000,,2013-02-21 21:32:00,
2013-02-21 17:01:00,28.0,22.0,-100.00,NNW,348,5.0,14.0,78,0.00,,,0.00,30.000000,,2013-02-21 22:01:00,
2013-02-21 17:11:00,28.0,22.0,-100.00,NNW,348,5.0,14.0,78,0.00,,,0.00,30.000000,,2013-02-21 22:11:00,
2013-02-21 17:21:00,28.0,22.0,-100.00,NNW,348,5.0,14.0,78,0.00,,,0.00,30.000000,,2013-02-21 22:21:00,
2013-02-21 17:32:00,28.0,22.0,-100.00,NNW,348,5.0,14.0,78,0.00,,,0.00,30.000000,,2013-02-21 22:32:00,
2013-02-21 18:01:00,30.0,25.0,-100.00,North,355,6.0,-999.0,82,0.00,,,0.00,,,2013-02-21 23:01:00,
2013-02-21 18:11:00,30.0,25.0,-100.00,North,355,6.0,-999.0,82,0.00,,,0.00,,,2013-02-21 23:11:00,
2013-02-21 18:21:00,30.0,25.0,-100.00,North,355,6.0,-999.0,82,0.00,,,0.00,,,2013-02-21 23:21:00,
2013-02-21 18:32:00,30.0,25.0,-100.00,North,355,6.0,-999.0,82,0.00,,,0.00,,,2013-02-21 23:32:00,
2013-02-21 18:53:00,32.0,26.0,-100.00,North,1,6.0,17.0,79,0.00,,,0.00,0.000000,,2013-02-21 23:53:00,
2013-02-21 19:02:00,32.0,26.0,-100.00,North,1,6.0,17.0,79,0.00,,,0.00,0.000000,,2013-02-22 00:02:00,
2013-02-21 19:11:00,32.0,26.0,-100.00,North,1,6.0,17.0,79,0.00,,,0.00,0.000000,,2013-02-22 00:11:00,
2013-02-21 19:22:00,32.0,26.0,-100.00,North,1,6.0,17.0,79,0.00,,,0.00,0.000000,,2013-02-22 00:22:00,
2013-02-21 19:32:00,32.0,26.0,-100.00,North,1,6.0,17.0,79,0.00,,,0.00,0.000000,,2013-02-22 00:32:00,
2013-02-21 20:01:00,33.0,28.0,-100.00,North,6,5.0,-999.0,82,0.00,,,0.00,,,2013-02-22 01:01:00,
2013-02-21 20:11:00,33.0,28.0,-100.00,North,6,5.0,-999.0,82,0.00,,,0.00,,,2013-02-22 01:11:00,
2013-02-21 20:22:00,33.0,28.0,-100.00,North,6,5.0,-999.0,82,0.00,,,0.00,,,2013-02-22 01:22:00,
2013-02-21 20:32:00,33.0,28.0,-100.00,North,6,5.0,-999.0,82,0.00,,,0.00,,,2013-02-22 01:32:00,
2013-02-21 21:02:00,34.0,27.0,-100.00,NNE,21,6.0,17.0,76,0.00,,,0.00,0.000000,,2013-02-22 02:02:00,
2013-02-21 21:11:00,34.0,27.0,-100.00,NNE,21,6.0,17.0,76,0.00,,,0.00,0.000000,,2013-02-22 02:11:00,
2013-02-21 21:21:00,34.0,27.0,-100.00,NNE,21,6.0,17.0,76,0.00,,,0.00,0.000000,,2013-02-22 02:21:00,
2013-02-21 21:32:00,34.0,27.0,-100.00,NNE,21,6.0,17.0,76,0.00,,,0.00,0.000000,,2013-02-22 02:32:00,
2013-02-21 22:02:00,34.0,26.0,-100.00,NNE,22,11.0,23.0,73,0.00,,,0.00,0.000000,,2013-02-22 03:02:00,
2013-02-21 22:11:00,34.0,26.0,-100.00,NNE,22,11.0,23.0,73,0.00,,,0.00,0.000000,,2013-02-22 03:11:00,
2013-02-21 22:21:00,34.0,26.0,-100.00,NNE,22,11.0,23.0,73,0.00,,,0.00,0.000000,,2013-02-22 03:21:00,
2013-02-21 22:32:00,34.0,26.0,-100.00,NNE,22,11.0,23.0,73,0.00,,,0.00,0.000000,,2013-02-22 03:32:00,
2013-02-21 23:02:00,34.0,25.0,-100.00,NNE,27,11.0,24.0,70,0.00,,,0.00,0.000000,,2013-02-22 04:02:00,
2013-02-21 23:11:00,34.0,25.0,-100.00,NNE,27,11.0,24.0,70,0.00,,,0.00,0.000000,,2013-02-22 04:11:00,
2013-02-21 23:21:00,34.0,25.0,-100.00,NNE,27,11.0,24.0,70,0.00,,,0.00,0.000000,,2013-02-22 04:21:00,
2013-02-21 23:32:00,34.0,25.0,-100.00,NNE,27,11.0,24.0,70,0.00,,,0.00,0.000000,,2013-02-22 04:32:00,